createdAt,value
2023-05-20T00:02:03.561Z,0.85
2023-05-20T00:04:32.028Z,1.23
2023-05-20T00:07:00.149Z,1.13
2023-05-20T00:09:29.644Z,0.88
2023-05-20T00:11:59.027Z,1.05
2023-05-20T00:14:27.084Z,1.80
2023-05-20T00:16:55.318Z,1.13
2023-05-20T00:19:23.634Z,1.05
2023-05-20T00:21:51.734Z,0.80
2023-05-20T00:24:19.855Z,1.27
2023-05-20T00:26:47.901Z,0.95
2023-05-20T00:29:17.328Z,0.80
2023-05-20T00:31:45.394Z,1.10
2023-05-20T00:34:15.911Z,0.70
2023-05-20T00:36:44.101Z,0.90
2023-05-20T00:39:12.208Z,0.80
2023-05-20T00:41:40.810Z,1.30
2023-05-20T00:44:08.891Z,1.10
2023-05-20T00:46:38.723Z,1.55
2023-05-20T00:49:07.832Z,0.95
2023-05-20T00:51:36.101Z,0.88
2023-05-20T00:54:04.698Z,1.17
2023-05-20T00:56:33.494Z,0.95
2023-05-20T00:59:01.680Z,1.20
2023-05-20T01:01:29.724Z,0.80
2023-05-20T01:04:00.177Z,0.70
2023-05-20T01:06:30.793Z,0.90
2023-05-20T01:08:58.865Z,0.85
2023-05-20T01:11:35.642Z,1.35
2023-05-20T01:14:09.273Z,1.33
2023-05-20T01:16:40.230Z,1.27
2023-05-20T01:19:36.448Z,0.90
2023-05-20T01:22:07.913Z,1.13
2023-05-20T01:24:37.607Z,0.70
2023-05-20T01:27:10.545Z,1.08
2023-05-20T01:29:39.237Z,0.93
2023-05-20T01:32:12.187Z,1.40
2023-05-20T01:34:45.300Z,0.80
2023-05-20T01:37:14.897Z,1.10
2023-05-20T01:39:45.273Z,0.90
2023-05-20T01:42:16.477Z,0.75
2023-05-20T01:44:44.972Z,0.80
2023-05-20T01:47:13.104Z,0.63
2023-05-20T01:49:41.535Z,1.17
2023-05-20T01:52:09.648Z,1.30
2023-05-20T01:54:37.786Z,0.60
2023-05-20T01:57:07.636Z,1.20
2023-05-20T01:59:35.711Z,1.05
2023-05-20T02:02:04.349Z,0.90
2023-05-20T02:04:32.559Z,0.82
2023-05-20T02:07:00.592Z,0.88
2023-05-20T02:09:29.251Z,1.10
2023-05-20T02:11:57.329Z,0.77
2023-05-20T02:14:26.822Z,1.00
2023-05-20T02:16:54.925Z,1.00
2023-05-20T02:19:24.014Z,0.88
2023-05-20T02:21:52.640Z,1.02
2023-05-20T02:24:21.679Z,1.17
2023-05-20T02:26:51.172Z,0.73
2023-05-20T02:29:22.055Z,0.77
2023-05-20T02:31:51.477Z,1.30
2023-05-20T02:34:20.281Z,1.30
2023-05-20T02:36:48.940Z,0.82
2023-05-20T02:39:17.280Z,1.13
2023-05-20T02:41:45.498Z,1.55
2023-05-20T02:44:13.555Z,1.35
2023-05-20T02:46:41.652Z,1.13
2023-05-20T02:49:11.132Z,1.13
2023-05-20T02:51:39.166Z,1.20
2023-05-20T02:54:07.294Z,1.15
2023-05-20T02:56:35.414Z,0.90
2023-05-20T02:59:04.795Z,1.75
2023-05-20T03:01:33.888Z,0.70
2023-05-20T03:04:03.014Z,1.23
2023-05-20T03:06:32.854Z,1.33
2023-05-20T03:09:01.565Z,1.10
2023-05-20T03:11:29.629Z,0.80
2023-05-20T03:13:57.662Z,1.10
2023-05-20T03:16:28.181Z,0.88
2023-05-20T03:18:56.514Z,1.02
2023-05-20T03:21:25.233Z,0.70
2023-05-20T03:23:54.682Z,1.63
2023-05-20T03:26:23.260Z,1.05
2023-05-20T03:28:51.307Z,1.05
2023-05-20T03:31:19.478Z,1.20
2023-05-20T03:33:47.564Z,1.60
2023-05-20T03:36:15.682Z,0.90
2023-05-20T03:38:43.886Z,1.08
2023-05-20T03:41:13.417Z,1.13
2023-05-20T03:43:41.566Z,1.45
2023-05-20T03:46:09.623Z,1.65
2023-05-20T03:48:37.753Z,0.93
2023-05-20T03:51:05.922Z,0.77
2023-05-20T03:53:33.970Z,1.15
2023-05-20T03:56:02.335Z,1.63
2023-05-20T03:58:32.279Z,1.10
2023-05-20T04:01:00.347Z,1.38
2023-05-20T04:03:29.154Z,1.13
2023-05-20T04:05:57.302Z,1.40
2023-05-20T04:08:26.212Z,2.15
2023-05-20T04:10:57.527Z,1.00
2023-05-20T04:13:26.690Z,1.52
2023-05-20T04:15:56.235Z,1.30
2023-05-20T04:18:24.305Z,1.23
2023-05-20T04:20:56.267Z,1.38
2023-05-20T04:23:24.580Z,1.13
2023-05-20T04:25:52.691Z,1.30
2023-05-20T04:28:23.843Z,1.15
2023-05-20T04:31:02.699Z,1.45
2023-05-20T04:33:31.149Z,1.65
2023-05-20T04:35:59.445Z,1.50
2023-05-20T04:38:30.093Z,1.88
2023-05-20T04:40:58.889Z,1.40
2023-05-20T04:43:29.968Z,1.52
2023-05-20T04:45:58.678Z,0.88
2023-05-20T04:48:29.021Z,0.82
2023-05-20T04:50:57.084Z,1.58
2023-05-20T04:53:25.201Z,1.23
2023-05-20T04:55:56.816Z,2.30
2023-05-20T04:58:25.718Z,0.85
2023-05-20T05:00:54.206Z,1.40
2023-05-20T05:03:22.268Z,1.20
2023-05-20T05:05:51.727Z,0.90
2023-05-20T05:08:19.827Z,1.35
2023-05-20T05:10:47.941Z,1.35
2023-05-20T05:13:16.262Z,1.20
2023-05-20T05:15:44.580Z,0.93
2023-05-20T05:18:12.666Z,1.27
2023-05-20T05:20:41.014Z,1.52
2023-05-20T05:23:10.606Z,1.02
2023-05-20T05:25:38.699Z,1.20
2023-05-20T05:28:06.761Z,1.25
2023-05-20T05:30:34.990Z,1.05
2023-05-20T05:33:03.177Z,1.05
2023-05-20T05:35:31.401Z,1.40
2023-05-20T05:37:59.505Z,1.30
2023-05-20T05:40:29.168Z,1.25
2023-05-20T05:42:57.257Z,1.33
2023-05-20T05:45:25.379Z,1.40
2023-05-20T05:47:53.458Z,1.42
2023-05-20T05:50:21.695Z,1.10
2023-05-20T05:52:49.770Z,1.20
2023-05-20T05:55:18.367Z,1.30
2023-05-20T05:57:47.963Z,1.42
2023-05-20T06:00:17.000Z,1.10
2023-05-20T06:02:45.217Z,1.63
2023-05-20T06:05:13.418Z,1.13
2023-05-20T06:07:41.514Z,1.35
2023-05-20T06:10:11.143Z,1.15
2023-05-20T06:12:39.217Z,1.20
2023-05-20T06:15:10.651Z,1.20
2023-05-20T06:17:39.632Z,1.95
2023-05-20T06:20:09.423Z,1.52
2023-05-20T06:22:38.866Z,1.27
2023-05-20T06:25:09.368Z,1.77
2023-05-20T06:27:37.492Z,1.65
2023-05-20T06:30:09.093Z,1.13
2023-05-20T06:32:37.211Z,1.55
2023-05-20T06:35:06.348Z,1.33
2023-05-20T06:37:34.468Z,1.30
2023-05-20T06:40:02.617Z,0.82
2023-05-20T06:42:30.932Z,1.65
2023-05-20T06:44:59.255Z,1.50
2023-05-20T06:47:28.779Z,1.63
2023-05-20T06:49:56.859Z,2.28
2023-05-20T06:52:25.035Z,1.15
2023-05-20T06:54:53.090Z,0.98
2023-05-20T06:57:22.425Z,1.20
2023-05-20T06:59:50.531Z,1.25
2023-05-20T07:02:18.593Z,1.20
2023-05-20T07:04:48.048Z,1.27
2023-05-20T07:07:17.370Z,1.92
2023-05-20T07:09:46.187Z,1.45
2023-05-20T07:12:14.302Z,1.60
2023-05-20T07:14:44.086Z,1.13
2023-05-20T07:17:12.900Z,1.50
2023-05-20T07:19:41.064Z,1.70
2023-05-20T07:22:11.051Z,1.80
2023-05-20T07:24:39.504Z,1.65
2023-05-20T07:27:07.582Z,1.80
2023-05-20T07:29:35.883Z,1.05
2023-05-20T07:32:05.403Z,1.40
2023-05-20T07:34:33.677Z,1.60
2023-05-20T07:37:01.771Z,1.52
2023-05-20T07:39:31.251Z,1.80
2023-05-20T07:41:59.343Z,1.98
2023-05-20T07:44:27.562Z,1.90
2023-05-20T07:46:56.430Z,1.63
2023-05-20T07:49:24.506Z,2.05
2023-05-20T07:51:52.654Z,1.45
2023-05-20T07:54:20.884Z,1.75
2023-05-20T07:56:50.322Z,1.55
2023-05-20T07:59:18.364Z,1.15
2023-05-20T08:01:47.477Z,1.50
2023-05-20T08:04:15.900Z,1.38
2023-05-20T08:06:44.516Z,1.40
2023-05-20T08:09:12.684Z,1.80
2023-05-20T08:11:40.783Z,2.00
2023-05-20T08:14:10.238Z,1.50
2023-05-20T08:16:38.490Z,1.33
2023-05-20T08:19:06.659Z,2.38
2023-05-20T08:21:35.320Z,1.67
2023-05-20T08:24:03.502Z,1.88
2023-05-20T08:26:31.598Z,2.30
2023-05-20T08:28:59.636Z,1.35
2023-05-20T08:31:29.166Z,1.70
2023-05-20T08:33:57.782Z,1.80
2023-05-20T08:36:25.847Z,1.40
2023-05-20T08:38:54.002Z,1.40
2023-05-20T08:41:22.768Z,2.08
2023-05-20T08:43:52.712Z,1.80
2023-05-20T08:46:23.716Z,2.50
2023-05-20T08:48:53.264Z,2.05
2023-05-20T08:51:23.833Z,1.60
2023-05-20T08:53:53.018Z,1.80
2023-05-20T08:56:23.575Z,1.65
2023-05-20T08:58:52.002Z,1.40
2023-05-20T09:01:20.223Z,1.85
2023-05-20T09:03:48.325Z,1.85
2023-05-20T09:06:20.178Z,1.70
2023-05-20T09:08:50.631Z,1.90
2023-05-20T09:11:19.057Z,1.77
2023-05-20T09:13:47.113Z,2.17
2023-05-20T09:16:15.270Z,2.05
2023-05-20T09:18:43.590Z,1.30
2023-05-20T09:21:11.798Z,1.65
2023-05-20T09:23:41.472Z,1.95
2023-05-20T09:26:09.773Z,1.95
2023-05-20T09:28:39.810Z,1.67
2023-05-20T09:31:08.925Z,1.98
2023-05-20T09:33:39.100Z,1.80
2023-05-20T09:36:09.915Z,1.80
2023-05-20T09:38:41.647Z,1.50
2023-05-20T09:41:12.759Z,2.25
2023-05-20T09:43:41.981Z,1.88
2023-05-20T09:46:11.378Z,1.20
2023-05-20T09:48:40.757Z,1.92
2023-05-20T09:51:09.472Z,1.63
2023-05-20T09:53:38.074Z,2.00
2023-05-20T09:56:08.256Z,1.60
2023-05-20T09:58:37.778Z,1.67
2023-05-20T10:01:07.243Z,1.85
2023-05-20T10:03:36.125Z,1.77
2023-05-20T10:06:29.420Z,1.60
2023-05-20T10:09:29.316Z,2.50
2023-05-20T10:12:11.169Z,1.67
2023-05-20T10:14:56.365Z,1.80
2023-05-20T10:17:36.462Z,2.13
2023-05-20T10:20:09.190Z,1.58
2023-05-20T10:22:37.277Z,1.75
2023-05-20T10:25:09.012Z,1.63
2023-05-20T10:27:49.040Z,1.70
2023-05-20T10:30:18.666Z,2.00
2023-05-20T10:33:00.604Z,2.00
2023-05-20T10:35:29.332Z,2.25
2023-05-20T10:38:11.338Z,1.58
2023-05-20T10:40:40.882Z,1.50
2023-05-20T10:43:15.192Z,1.70
2023-05-20T10:45:51.589Z,1.92
2023-05-20T10:48:26.086Z,1.80
2023-05-20T10:50:58.166Z,2.25
2023-05-20T10:53:33.608Z,2.13
2023-05-20T10:56:03.002Z,1.80
2023-05-20T10:58:40.417Z,2.13
2023-05-20T11:01:09.810Z,1.85
2023-05-20T11:03:38.431Z,1.92
2023-05-20T11:06:14.874Z,1.90
2023-05-20T11:08:45.839Z,2.28
2023-05-20T11:11:16.281Z,2.53
2023-05-20T11:13:46.089Z,2.33
2023-05-20T11:16:14.530Z,1.98
2023-05-20T11:18:42.732Z,1.80
2023-05-20T11:21:10.999Z,1.92
2023-05-20T11:23:40.696Z,1.83
2023-05-20T11:26:09.139Z,2.35
2023-05-20T11:28:37.556Z,2.15
2023-05-20T11:31:07.712Z,1.60
2023-05-20T11:33:35.809Z,1.83
2023-05-20T11:36:08.630Z,1.75
2023-05-20T11:38:42.993Z,1.80
2023-05-20T11:41:11.102Z,1.27
2023-05-20T11:43:39.229Z,2.15
2023-05-20T11:46:08.758Z,1.63
2023-05-20T11:48:36.859Z,1.60
2023-05-20T11:51:05.446Z,1.55
2023-05-20T11:53:33.567Z,1.83
2023-05-20T11:56:02.842Z,2.72
2023-05-20T11:58:32.670Z,2.90
2023-05-20T12:01:09.626Z,2.40
2023-05-20T12:03:51.430Z,2.00
2023-05-20T12:06:20.979Z,1.83
2023-05-20T12:08:49.235Z,1.52
2023-05-20T12:11:17.335Z,1.65
2023-05-20T12:13:45.537Z,2.20
2023-05-20T12:16:13.695Z,1.90
2023-05-20T12:18:41.891Z,2.13
2023-05-20T12:21:11.368Z,1.75
2023-05-20T12:23:39.500Z,1.85
2023-05-20T12:26:07.621Z,1.98
2023-05-20T12:28:36.259Z,1.70
2023-05-20T12:31:04.501Z,1.70
2023-05-20T12:33:32.630Z,2.10
2023-05-20T12:36:01.014Z,1.80
2023-05-20T12:38:30.521Z,1.63
2023-05-20T12:40:58.604Z,2.08
2023-05-20T12:43:26.690Z,1.48
2023-05-20T12:45:55.272Z,2.08
2023-05-20T12:48:23.334Z,1.63
2023-05-20T12:50:51.429Z,1.88
2023-05-20T12:53:19.510Z,1.75
2023-05-20T12:55:48.945Z,1.92
2023-05-20T12:58:17.003Z,1.83
2023-05-20T13:00:45.129Z,2.00
2023-05-20T13:03:13.349Z,1.95
2023-05-20T13:05:41.572Z,1.67
2023-05-20T13:08:11.031Z,1.80
2023-05-20T13:10:39.359Z,2.95
2023-05-20T13:13:08.861Z,2.83
2023-05-20T13:15:37.037Z,2.13
2023-05-20T13:18:06.726Z,1.98
2023-05-20T13:20:35.334Z,1.67
2023-05-20T13:23:03.639Z,2.10
2023-05-20T13:25:32.020Z,1.98
2023-05-20T13:28:00.240Z,1.70
2023-05-20T13:30:29.792Z,1.85
2023-05-20T13:32:57.943Z,1.98
2023-05-20T13:35:27.153Z,2.22
2023-05-20T13:37:55.333Z,2.50
2023-05-20T13:40:23.637Z,3.33
2023-05-20T13:42:51.740Z,1.75
2023-05-20T13:45:20.100Z,2.05
2023-05-20T13:47:49.692Z,1.92
2023-05-20T13:50:17.893Z,1.92
2023-05-20T13:52:46.033Z,2.25
2023-05-20T13:55:14.220Z,2.17
2023-05-20T13:57:42.353Z,2.50
2023-05-20T14:00:11.921Z,2.33
2023-05-20T14:02:40.138Z,2.38
2023-05-20T14:05:10.670Z,2.33
2023-05-20T14:07:39.268Z,3.40
2023-05-20T14:10:11.301Z,2.30
2023-05-20T14:12:39.532Z,3.33
2023-05-20T14:15:09.285Z,2.20
2023-05-20T14:17:37.409Z,2.90
2023-05-20T14:20:07.321Z,2.55
2023-05-20T14:22:36.839Z,2.38
2023-05-20T14:25:05.936Z,2.63
2023-05-20T14:27:34.029Z,2.70
2023-05-20T14:30:02.219Z,1.92
2023-05-20T14:32:30.565Z,2.30
2023-05-20T14:34:58.674Z,2.17
2023-05-20T14:37:27.979Z,2.20
2023-05-20T14:39:57.945Z,2.45
2023-05-20T14:42:26.227Z,2.17
2023-05-20T14:44:54.333Z,2.13
2023-05-20T14:47:22.728Z,2.50
2023-05-20T14:49:51.318Z,2.33
2023-05-20T14:52:20.194Z,2.53
2023-05-20T14:54:48.319Z,2.80
2023-05-20T14:57:17.895Z,2.20
2023-05-20T14:59:46.341Z,2.92
2023-05-20T15:02:15.836Z,2.70
2023-05-20T15:04:46.425Z,2.97
2023-05-20T15:07:14.790Z,2.33
2023-05-20T15:09:43.734Z,2.75
2023-05-20T15:12:12.378Z,3.15
2023-05-20T15:14:42.163Z,3.53
2023-05-20T15:17:10.360Z,2.90
2023-05-20T15:19:41.221Z,2.22
2023-05-20T15:22:09.745Z,2.80
2023-05-20T15:24:37.891Z,2.50
2023-05-20T15:27:06.872Z,2.97
2023-05-20T15:29:35.113Z,2.60
2023-05-20T15:32:05.020Z,2.70
2023-05-20T15:34:33.391Z,3.20
2023-05-20T15:37:01.510Z,3.13
2023-05-20T15:39:29.568Z,3.22
2023-05-20T15:41:59.463Z,3.22
2023-05-20T15:44:28.715Z,2.85
2023-05-20T15:46:57.144Z,3.05
2023-05-20T15:49:26.626Z,3.05
2023-05-20T15:52:02.860Z,2.78
2023-05-20T15:54:31.954Z,3.30
2023-05-20T15:57:00.149Z,2.92
2023-05-20T15:59:28.206Z,3.05
2023-05-20T16:01:56.407Z,3.22
2023-05-20T16:04:25.999Z,3.65
2023-05-20T16:06:54.199Z,2.92
2023-05-20T16:09:22.376Z,3.20
2023-05-20T16:11:50.560Z,3.70
2023-05-20T16:14:18.720Z,3.47
2023-05-20T16:16:46.901Z,3.00
2023-05-20T16:19:15.163Z,2.75
2023-05-20T16:21:44.689Z,3.47
2023-05-20T16:24:12.820Z,3.05
2023-05-20T16:26:40.907Z,3.10
2023-05-20T16:29:08.989Z,3.25
2023-05-20T16:31:37.161Z,3.03
2023-05-20T16:34:06.509Z,3.00
2023-05-20T16:36:34.653Z,3.17
2023-05-20T16:39:04.168Z,3.60
2023-05-20T16:41:32.611Z,3.63
2023-05-20T16:44:00.715Z,3.63
2023-05-20T16:46:28.906Z,3.13
2023-05-20T16:48:57.089Z,3.85
2023-05-20T16:51:26.103Z,2.90
2023-05-20T16:53:54.484Z,3.33
2023-05-20T16:56:24.055Z,3.47
2023-05-20T16:58:53.222Z,3.42
2023-05-20T17:01:23.146Z,4.50
2023-05-20T17:03:51.324Z,3.67
2023-05-20T17:06:19.538Z,3.95
2023-05-20T17:08:47.898Z,3.15
2023-05-20T17:11:15.955Z,4.00
2023-05-20T17:13:45.431Z,4.20
2023-05-20T17:16:13.591Z,3.97
2023-05-20T17:18:41.767Z,3.35
2023-05-20T17:21:09.958Z,3.10
2023-05-20T17:23:37.991Z,3.30
2023-05-20T17:26:06.384Z,3.65
2023-05-20T17:28:34.510Z,3.10
2023-05-20T17:31:03.990Z,3.35
2023-05-20T17:33:32.307Z,3.42
2023-05-20T17:36:00.669Z,4.18
2023-05-20T17:38:28.815Z,3.55
2023-05-20T17:40:57.242Z,4.45
2023-05-20T17:43:26.136Z,3.55
2023-05-20T17:45:54.426Z,3.95
2023-05-20T17:48:24.079Z,4.05
2023-05-20T17:50:52.177Z,3.72
2023-05-20T17:53:22.034Z,3.53
2023-05-20T17:55:50.343Z,4.00
2023-05-20T17:58:20.839Z,3.85
2023-05-20T18:00:48.977Z,4.28
2023-05-20T18:03:17.757Z,4.32
2023-05-20T18:05:47.679Z,3.95
2023-05-20T18:08:15.884Z,4.18
2023-05-20T18:10:43.971Z,4.60
2023-05-20T18:13:12.269Z,3.80
2023-05-20T18:15:40.422Z,4.30
2023-05-20T18:18:08.576Z,4.20
2023-05-20T18:20:36.926Z,4.32
2023-05-20T18:23:06.593Z,4.05
2023-05-20T18:25:35.025Z,4.68
2023-05-20T18:28:03.281Z,4.35
2023-05-20T18:30:31.498Z,5.20
2023-05-20T18:32:59.640Z,4.80
2023-05-20T18:35:27.817Z,4.43
2023-05-20T18:37:56.093Z,4.70
2023-05-20T18:40:26.095Z,3.92
2023-05-20T18:42:54.162Z,4.45
2023-05-20T18:45:22.433Z,4.53
2023-05-20T18:47:50.578Z,4.85
2023-05-20T18:50:18.974Z,4.57
2023-05-20T18:52:47.196Z,5.10
2023-05-20T18:55:15.567Z,4.65
2023-05-20T18:57:45.411Z,5.20
2023-05-20T19:00:15.666Z,4.65
2023-05-20T19:02:44.145Z,4.60
2023-05-20T19:05:13.731Z,4.43
2023-05-20T19:07:41.986Z,4.95
2023-05-20T19:10:10.925Z,5.68
2023-05-20T19:12:39.135Z,4.15
2023-05-20T19:15:10.618Z,3.85
2023-05-20T19:17:39.452Z,4.32
2023-05-20T19:20:10.454Z,4.70
2023-05-20T19:22:38.736Z,4.40
2023-05-20T19:25:07.797Z,4.28
2023-05-20T19:27:36.166Z,4.70
2023-05-20T19:30:04.780Z,5.07
2023-05-20T19:32:34.512Z,4.93
2023-05-20T19:35:02.835Z,4.13
2023-05-20T19:37:32.000Z,3.85
2023-05-20T19:40:00.108Z,6.70
2023-05-20T19:42:28.342Z,6.25
2023-05-20T19:44:57.491Z,7.47
2023-05-20T19:47:25.653Z,6.70
2023-05-20T19:49:55.250Z,6.57
2023-05-20T19:52:23.359Z,5.70
2023-05-20T19:54:51.634Z,4.63
2023-05-20T19:57:19.773Z,7.13
2023-05-20T19:59:47.879Z,5.47
2023-05-20T20:02:16.252Z,4.90
2023-05-20T20:04:44.324Z,5.50
2023-05-20T20:07:14.109Z,4.70
2023-05-20T20:09:42.270Z,4.57
2023-05-20T20:12:10.401Z,5.05
2023-05-20T20:14:38.493Z,4.72
2023-05-20T20:17:06.611Z,4.80
2023-05-20T20:19:34.866Z,4.15
2023-05-20T20:22:02.951Z,4.68
2023-05-20T20:24:32.381Z,4.78
2023-05-20T20:27:00.518Z,5.13
2023-05-20T20:29:28.613Z,5.50
2023-05-20T20:31:56.864Z,4.18
2023-05-20T20:34:24.961Z,5.03
2023-05-20T20:36:55.243Z,4.55
2023-05-20T20:39:25.181Z,5.25
2023-05-20T20:41:54.716Z,4.85
2023-05-20T20:44:22.910Z,5.32
2023-05-20T20:46:51.715Z,5.32
2023-05-20T20:49:20.455Z,5.35
2023-05-20T20:51:50.600Z,5.70
2023-05-20T20:54:18.704Z,4.70
2023-05-20T20:56:47.233Z,5.05
2023-05-20T20:59:17.023Z,5.07
2023-05-20T21:01:45.449Z,4.80
2023-05-20T21:04:14.470Z,4.35
2023-05-20T21:06:45.883Z,5.65
2023-05-20T21:09:14.512Z,5.07
2023-05-20T21:11:43.241Z,4.70
2023-05-20T21:14:12.104Z,4.82
2023-05-20T21:16:42.190Z,4.65
2023-05-20T21:19:10.543Z,5.10
2023-05-20T21:21:38.697Z,4.50
2023-05-20T21:24:07.660Z,4.75
2023-05-20T21:26:35.789Z,5.22
2023-05-20T21:29:03.880Z,4.38
2023-05-20T21:31:32.047Z,5.03
2023-05-20T21:34:01.578Z,5.60
2023-05-20T21:36:29.851Z,6.22
2023-05-20T21:38:57.949Z,6.30
2023-05-20T21:41:27.253Z,5.88
2023-05-20T21:43:55.480Z,6.57
2023-05-20T21:46:23.834Z,4.55
2023-05-20T21:48:51.990Z,6.43
2023-05-20T21:51:21.413Z,4.65
2023-05-20T21:53:49.544Z,4.85
2023-05-20T21:56:17.850Z,5.10
2023-05-20T21:58:45.980Z,5.60
2023-05-20T22:01:14.164Z,5.95
2023-05-20T22:03:47.883Z,4.95
2023-05-20T22:06:17.978Z,4.80
2023-05-20T22:08:47.372Z,6.05
2023-05-20T22:11:15.705Z,6.30
2023-05-20T22:13:44.325Z,6.00
2023-05-20T22:16:12.516Z,4.32
2023-05-20T22:18:40.763Z,5.57
2023-05-20T22:21:08.876Z,6.50
2023-05-20T22:23:36.950Z,4.72
2023-05-20T22:26:06.515Z,5.28
2023-05-20T22:28:34.603Z,5.82
2023-05-20T22:31:04.747Z,5.18
2023-05-20T22:33:32.928Z,5.28
2023-05-20T22:36:01.100Z,4.43
2023-05-20T22:38:29.734Z,5.07
2023-05-20T22:40:57.956Z,5.32
2023-05-20T22:43:27.375Z,5.25
2023-05-20T22:45:55.846Z,4.40
2023-05-20T22:48:23.974Z,5.35
2023-05-20T22:50:53.978Z,5.45
2023-05-20T22:53:22.119Z,5.22
2023-05-20T22:55:50.690Z,5.13
2023-05-20T22:58:18.814Z,6.28
2023-05-20T23:00:48.345Z,4.95
2023-05-20T23:03:16.409Z,6.25
2023-05-20T23:05:44.498Z,4.78
2023-05-20T23:08:12.619Z,5.80
2023-05-20T23:10:40.680Z,5.10
2023-05-20T23:13:08.710Z,5.53
2023-05-20T23:15:37.392Z,4.50
2023-05-20T23:18:07.152Z,5.10
2023-05-20T23:20:35.577Z,5.03
2023-05-20T23:23:10.892Z,5.72
2023-05-20T23:25:39.714Z,7.35
2023-05-20T23:28:07.995Z,5.43
2023-05-20T23:30:36.806Z,5.75
2023-05-20T23:33:06.635Z,5.68
2023-05-20T23:35:34.963Z,6.25
2023-05-20T23:38:03.177Z,5.20
2023-05-20T23:40:31.316Z,5.80
2023-05-20T23:42:59.411Z,6.82
2023-05-20T23:45:28.593Z,6.07
2023-05-20T23:47:56.774Z,4.80
2023-05-20T23:50:27.823Z,5.00
2023-05-20T23:52:56.084Z,6.22
2023-05-20T23:55:24.240Z,5.60
2023-05-20T23:57:52.364Z,6.35
